sensor_id;sensor_type;location;lat;lon;timestamp;P1;durP1;ratioP1;P2;durP2;ratioP2
14554;SDS011;7364;50.870;4.722;2023-11-21T00:00:16;37.63;;;25.17;;
14554;SDS011;7364;50.870;4.722;2023-11-21T00:02:43;33.73;;;24.43;;
14554;SDS011;7364;50.870;4.722;2023-11-21T00:05:11;40.57;;;25.83;;
14554;SDS011;7364;50.870;4.722;2023-11-21T00:07:41;32.20;;;25.00;;
14554;SDS011;7364;50.870;4.722;2023-11-21T00:10:09;34.73;;;24.70;;
14554;SDS011;7364;50.870;4.722;2023-11-21T00:12:39;35.03;;;25.63;;
14554;SDS011;7364;50.870;4.722;2023-11-21T00:15:07;35.23;;;23.90;;
14554;SDS011;7364;50.870;4.722;2023-11-21T00:17:36;35.57;;;25.17;;
14554;SDS011;7364;50.870;4.722;2023-11-21T00:20:03;27.43;;;23.10;;
14554;SDS011;7364;50.870;4.722;2023-11-21T00:22:32;35.47;;;23.67;;
14554;SDS011;7364;50.870;4.722;2023-11-21T00:25:01;30.90;;;22.63;;
14554;SDS011;7364;50.870;4.722;2023-11-21T00:27:29;33.53;;;24.97;;
14554;SDS011;7364;50.870;4.722;2023-11-21T00:29:56;37.50;;;24.00;;
14554;SDS011;7364;50.870;4.722;2023-11-21T00:32:23;41.83;;;25.73;;
14554;SDS011;7364;50.870;4.722;2023-11-21T00:34:50;33.20;;;24.97;;
14554;SDS011;7364;50.870;4.722;2023-11-21T00:37:17;33.90;;;24.03;;
14554;SDS011;7364;50.870;4.722;2023-11-21T00:39:44;36.83;;;25.73;;
14554;SDS011;7364;50.870;4.722;2023-11-21T00:42:13;30.47;;;24.10;;
14554;SDS011;7364;50.870;4.722;2023-11-21T00:44:40;37.83;;;24.27;;
14554;SDS011;7364;50.870;4.722;2023-11-21T00:47:07;35.57;;;23.80;;
14554;SDS011;7364;50.870;4.722;2023-11-21T00:49:34;34.60;;;24.47;;
14554;SDS011;7364;50.870;4.722;2023-11-21T00:52:02;36.37;;;25.60;;
14554;SDS011;7364;50.870;4.722;2023-11-21T00:54:29;29.33;;;23.73;;
14554;SDS011;7364;50.870;4.722;2023-11-21T00:56:56;31.20;;;24.43;;
14554;SDS011;7364;50.870;4.722;2023-11-21T00:59:25;31.10;;;24.17;;
14554;SDS011;7364;50.870;4.722;2023-11-21T01:01:52;36.57;;;23.40;;
14554;SDS011;7364;50.870;4.722;2023-11-21T01:04:20;34.10;;;24.57;;
14554;SDS011;7364;50.870;4.722;2023-11-21T01:06:47;32.70;;;21.83;;
14554;SDS011;7364;50.870;4.722;2023-11-21T01:09:14;30.23;;;23.27;;
14554;SDS011;7364;50.870;4.722;2023-11-21T01:11:43;32.37;;;23.10;;
14554;SDS011;7364;50.870;4.722;2023-11-21T01:14:11;33.27;;;23.53;;
14554;SDS011;7364;50.870;4.722;2023-11-21T01:16:40;42.03;;;24.10;;
14554;SDS011;7364;50.870;4.722;2023-11-21T01:19:07;35.70;;;23.43;;
14554;SDS011;7364;50.870;4.722;2023-11-21T01:21:34;33.97;;;22.80;;
14554;SDS011;7364;50.870;4.722;2023-11-21T01:24:02;37.73;;;24.53;;
14554;SDS011;7364;50.870;4.722;2023-11-21T01:26:32;38.73;;;23.50;;
14554;SDS011;7364;50.870;4.722;2023-11-21T01:29:00;38.27;;;26.60;;
14554;SDS011;7364;50.870;4.722;2023-11-21T01:31:27;33.30;;;25.10;;
14554;SDS011;7364;50.870;4.722;2023-11-21T01:33:56;30.27;;;24.90;;
14554;SDS011;7364;50.870;4.722;2023-11-21T01:36:29;37.80;;;24.63;;
14554;SDS011;7364;50.870;4.722;2023-11-21T01:38:58;35.87;;;23.57;;
14554;SDS011;7364;50.870;4.722;2023-11-21T01:41:25;37.40;;;24.43;;
14554;SDS011;7364;50.870;4.722;2023-11-21T01:43:54;31.30;;;23.73;;
14554;SDS011;7364;50.870;4.722;2023-11-21T01:46:22;33.93;;;24.80;;
14554;SDS011;7364;50.870;4.722;2023-11-21T01:48:49;35.33;;;23.50;;
14554;SDS011;7364;50.870;4.722;2023-11-21T01:51:18;38.70;;;24.13;;
14554;SDS011;7364;50.870;4.722;2023-11-21T01:53:45;29.53;;;23.43;;
14554;SDS011;7364;50.870;4.722;2023-11-21T01:56:13;29.63;;;23.17;;
14554;SDS011;7364;50.870;4.722;2023-11-21T01:58:40;34.90;;;25.10;;
14554;SDS011;7364;50.870;4.722;2023-11-21T02:01:08;35.47;;;24.00;;
14554;SDS011;7364;50.870;4.722;2023-11-21T02:03:36;33.33;;;22.67;;
14554;SDS011;7364;50.870;4.722;2023-11-21T02:06:03;29.53;;;22.47;;
14554;SDS011;7364;50.870;4.722;2023-11-21T02:08:33;31.77;;;24.67;;
14554;SDS011;7364;50.870;4.722;2023-11-21T02:11:02;35.40;;;23.43;;
14554;SDS011;7364;50.870;4.722;2023-11-21T02:13:30;39.83;;;23.73;;
14554;SDS011;7364;50.870;4.722;2023-11-21T02:15:58;33.70;;;22.83;;
14554;SDS011;7364;50.870;4.722;2023-11-21T02:18:25;34.33;;;23.17;;
14554;SDS011;7364;50.870;4.722;2023-11-21T02:20:55;33.20;;;23.10;;
14554;SDS011;7364;50.870;4.722;2023-11-21T02:23:24;31.90;;;21.73;;
14554;SDS011;7364;50.870;4.722;2023-11-21T02:25:54;38.97;;;24.03;;
14554;SDS011;7364;50.870;4.722;2023-11-21T02:28:21;34.57;;;23.40;;
14554;SDS011;7364;50.870;4.722;2023-11-21T02:30:51;38.40;;;23.57;;
14554;SDS011;7364;50.870;4.722;2023-11-21T02:33:20;31.70;;;20.90;;
14554;SDS011;7364;50.870;4.722;2023-11-21T02:35:48;35.03;;;22.60;;
14554;SDS011;7364;50.870;4.722;2023-11-21T02:38:19;37.40;;;24.50;;
14554;SDS011;7364;50.870;4.722;2023-11-21T02:40:48;33.50;;;23.10;;
14554;SDS011;7364;50.870;4.722;2023-11-21T02:43:15;39.90;;;23.30;;
14554;SDS011;7364;50.870;4.722;2023-11-21T02:45:42;36.87;;;22.63;;
14554;SDS011;7364;50.870;4.722;2023-11-21T02:48:10;31.83;;;22.33;;
14554;SDS011;7364;50.870;4.722;2023-11-21T02:50:37;30.90;;;21.97;;
14554;SDS011;7364;50.870;4.722;2023-11-21T02:53:04;34.87;;;23.03;;
14554;SDS011;7364;50.870;4.722;2023-11-21T02:55:32;32.67;;;22.80;;
14554;SDS011;7364;50.870;4.722;2023-11-21T02:58:02;35.90;;;21.67;;
14554;SDS011;7364;50.870;4.722;2023-11-21T03:03:01;35.40;;;22.40;;
14554;SDS011;7364;50.870;4.722;2023-11-21T03:05:29;31.33;;;22.43;;
14554;SDS011;7364;50.870;4.722;2023-11-21T03:07:56;34.73;;;22.60;;
14554;SDS011;7364;50.870;4.722;2023-11-21T03:10:24;34.27;;;21.67;;
14554;SDS011;7364;50.870;4.722;2023-11-21T03:12:52;33.30;;;22.63;;
14554;SDS011;7364;50.870;4.722;2023-11-21T03:15:21;36.23;;;24.10;;
14554;SDS011;7364;50.870;4.722;2023-11-21T03:17:48;41.33;;;23.60;;
14554;SDS011;7364;50.870;4.722;2023-11-21T03:20:15;35.60;;;23.57;;
14554;SDS011;7364;50.870;4.722;2023-11-21T03:22:44;32.27;;;21.80;;
14554;SDS011;7364;50.870;4.722;2023-11-21T03:25:11;37.17;;;23.47;;
14554;SDS011;7364;50.870;4.722;2023-11-21T03:27:39;38.93;;;24.50;;
14554;SDS011;7364;50.870;4.722;2023-11-21T03:30:07;30.90;;;22.20;;
14554;SDS011;7364;50.870;4.722;2023-11-21T03:32:37;30.53;;;21.93;;
14554;SDS011;7364;50.870;4.722;2023-11-21T03:35:05;30.47;;;21.00;;
14554;SDS011;7364;50.870;4.722;2023-11-21T03:37:32;34.03;;;23.57;;
14554;SDS011;7364;50.870;4.722;2023-11-21T03:39:59;35.93;;;23.57;;
14554;SDS011;7364;50.870;4.722;2023-11-21T03:42:29;33.57;;;21.10;;
14554;SDS011;7364;50.870;4.722;2023-11-21T03:44:56;30.40;;;22.47;;
14554;SDS011;7364;50.870;4.722;2023-11-21T03:47:24;36.97;;;23.20;;
14554;SDS011;7364;50.870;4.722;2023-11-21T03:49:53;32.93;;;22.40;;
14554;SDS011;7364;50.870;4.722;2023-11-21T03:52:21;30.57;;;21.37;;
14554;SDS011;7364;50.870;4.722;2023-11-21T03:54:48;32.30;;;22.97;;
14554;SDS011;7364;50.870;4.722;2023-11-21T03:57:15;27.63;;;21.80;;
14554;SDS011;7364;50.870;4.722;2023-11-21T03:59:43;30.53;;;22.33;;
14554;SDS011;7364;50.870;4.722;2023-11-21T04:02:10;28.97;;;21.47;;
14554;SDS011;7364;50.870;4.722;2023-11-21T04:04:37;34.13;;;20.90;;
14554;SDS011;7364;50.870;4.722;2023-11-21T04:07:06;28.77;;;21.60;;
14554;SDS011;7364;50.870;4.722;2023-11-21T04:09:33;30.70;;;22.87;;
14554;SDS011;7364;50.870;4.722;2023-11-21T04:12:01;43.53;;;23.43;;
14554;SDS011;7364;50.870;4.722;2023-11-21T04:14:29;38.07;;;22.83;;
14554;SDS011;7364;50.870;4.722;2023-11-21T04:16:56;30.13;;;20.80;;
14554;SDS011;7364;50.870;4.722;2023-11-21T04:19:23;28.37;;;20.53;;
14554;SDS011;7364;50.870;4.722;2023-11-21T04:21:50;26.93;;;20.30;;
14554;SDS011;7364;50.870;4.722;2023-11-21T04:24:19;34.07;;;21.43;;
14554;SDS011;7364;50.870;4.722;2023-11-21T04:26:46;29.77;;;20.83;;
14554;SDS011;7364;50.870;4.722;2023-11-21T04:29:14;37.93;;;22.13;;
14554;SDS011;7364;50.870;4.722;2023-11-21T04:31:41;35.53;;;21.90;;
14554;SDS011;7364;50.870;4.722;2023-11-21T04:34:08;30.40;;;19.73;;
14554;SDS011;7364;50.870;4.722;2023-11-21T04:36:35;30.17;;;20.73;;
14554;SDS011;7364;50.870;4.722;2023-11-21T04:39:02;28.67;;;20.50;;
14554;SDS011;7364;50.870;4.722;2023-11-21T04:41:33;34.07;;;20.80;;
14554;SDS011;7364;50.870;4.722;2023-11-21T04:44:01;30.03;;;20.97;;
14554;SDS011;7364;50.870;4.722;2023-11-21T04:46:30;26.80;;;19.70;;
14554;SDS011;7364;50.870;4.722;2023-11-21T04:48:57;29.77;;;20.03;;
14554;SDS011;7364;50.870;4.722;2023-11-21T04:51:24;30.10;;;20.03;;
14554;SDS011;7364;50.870;4.722;2023-11-21T04:53:52;36.00;;;21.70;;
14554;SDS011;7364;50.870;4.722;2023-11-21T04:56:19;33.40;;;20.93;;
14554;SDS011;7364;50.870;4.722;2023-11-21T04:58:48;33.63;;;20.90;;
14554;SDS011;7364;50.870;4.722;2023-11-21T05:01:15;29.23;;;19.93;;
14554;SDS011;7364;50.870;4.722;2023-11-21T05:03:43;27.13;;;19.33;;
14554;SDS011;7364;50.870;4.722;2023-11-21T05:06:10;29.23;;;19.37;;
14554;SDS011;7364;50.870;4.722;2023-11-21T05:08:37;33.57;;;21.17;;
14554;SDS011;7364;50.870;4.722;2023-11-21T05:11:04;28.53;;;18.33;;
14554;SDS011;7364;50.870;4.722;2023-11-21T05:13:33;32.43;;;21.07;;
14554;SDS011;7364;50.870;4.722;2023-11-21T05:16:02;28.13;;;19.37;;
14554;SDS011;7364;50.870;4.722;2023-11-21T05:18:31;24.33;;;18.70;;
14554;SDS011;7364;50.870;4.722;2023-11-21T05:20:59;27.47;;;20.03;;
14554;SDS011;7364;50.870;4.722;2023-11-21T05:23:27;29.17;;;21.87;;
14554;SDS011;7364;50.870;4.722;2023-11-21T05:25:54;27.30;;;19.63;;
14554;SDS011;7364;50.870;4.722;2023-11-21T05:28:22;26.90;;;18.23;;
14554;SDS011;7364;50.870;4.722;2023-11-21T05:30:49;30.13;;;19.93;;
14554;SDS011;7364;50.870;4.722;2023-11-21T05:33:17;32.27;;;19.70;;
14554;SDS011;7364;50.870;4.722;2023-11-21T05:35:45;24.70;;;17.93;;
14554;SDS011;7364;50.870;4.722;2023-11-21T05:38:13;25.57;;;19.17;;
14554;SDS011;7364;50.870;4.722;2023-11-21T05:40:39;21.40;;;17.80;;
14554;SDS011;7364;50.870;4.722;2023-11-21T05:43:07;27.20;;;19.03;;
14554;SDS011;7364;50.870;4.722;2023-11-21T05:45:34;22.27;;;18.27;;
14554;SDS011;7364;50.870;4.722;2023-11-21T05:48:01;34.77;;;19.50;;
14554;SDS011;7364;50.870;4.722;2023-11-21T05:50:31;24.57;;;18.03;;
14554;SDS011;7364;50.870;4.722;2023-11-21T05:52:58;29.10;;;18.30;;
14554;SDS011;7364;50.870;4.722;2023-11-21T05:55:26;24.83;;;17.43;;
14554;SDS011;7364;50.870;4.722;2023-11-21T05:57:53;23.97;;;17.37;;
14554;SDS011;7364;50.870;4.722;2023-11-21T06:00:20;27.27;;;18.30;;
14554;SDS011;7364;50.870;4.722;2023-11-21T06:02:48;34.40;;;19.17;;
14554;SDS011;7364;50.870;4.722;2023-11-21T06:05:18;31.40;;;17.53;;
14554;SDS011;7364;50.870;4.722;2023-11-21T06:07:47;28.60;;;17.30;;
14554;SDS011;7364;50.870;4.722;2023-11-21T06:10:14;22.53;;;17.47;;
14554;SDS011;7364;50.870;4.722;2023-11-21T06:12:44;22.23;;;17.13;;
14554;SDS011;7364;50.870;4.722;2023-11-21T06:15:12;26.83;;;16.63;;
14554;SDS011;7364;50.870;4.722;2023-11-21T06:17:40;31.13;;;17.23;;
14554;SDS011;7364;50.870;4.722;2023-11-21T06:20:08;23.93;;;15.87;;
14554;SDS011;7364;50.870;4.722;2023-11-21T06:22:40;24.47;;;16.07;;
14554;SDS011;7364;50.870;4.722;2023-11-21T06:25:10;28.30;;;15.63;;
14554;SDS011;7364;50.870;4.722;2023-11-21T06:27:38;24.07;;;16.77;;
14554;SDS011;7364;50.870;4.722;2023-11-21T06:30:07;26.53;;;17.00;;
14554;SDS011;7364;50.870;4.722;2023-11-21T06:32:35;19.20;;;15.10;;
14554;SDS011;7364;50.870;4.722;2023-11-21T06:35:03;24.03;;;16.00;;
14554;SDS011;7364;50.870;4.722;2023-11-21T06:37:31;27.10;;;18.60;;
14554;SDS011;7364;50.870;4.722;2023-11-21T06:39:59;25.33;;;16.43;;
14554;SDS011;7364;50.870;4.722;2023-11-21T06:42:30;23.33;;;15.33;;
14554;SDS011;7364;50.870;4.722;2023-11-21T06:44:58;28.93;;;17.03;;
14554;SDS011;7364;50.870;4.722;2023-11-21T06:47:29;21.33;;;16.10;;
14554;SDS011;7364;50.870;4.722;2023-11-21T06:49:56;24.27;;;15.97;;
14554;SDS011;7364;50.870;4.722;2023-11-21T06:52:24;26.43;;;17.10;;
14554;SDS011;7364;50.870;4.722;2023-11-21T06:54:51;28.77;;;18.23;;
14554;SDS011;7364;50.870;4.722;2023-11-21T06:57:18;31.00;;;17.93;;
14554;SDS011;7364;50.870;4.722;2023-11-21T06:59:46;22.73;;;14.83;;
14554;SDS011;7364;50.870;4.722;2023-11-21T07:02:13;29.17;;;17.93;;
14554;SDS011;7364;50.870;4.722;2023-11-21T07:04:43;22.13;;;16.83;;
14554;SDS011;7364;50.870;4.722;2023-11-21T07:07:11;20.13;;;16.37;;
14554;SDS011;7364;50.870;4.722;2023-11-21T07:09:38;21.30;;;15.73;;
14554;SDS011;7364;50.870;4.722;2023-11-21T07:12:06;23.80;;;16.53;;
14554;SDS011;7364;50.870;4.722;2023-11-21T07:14:33;22.27;;;17.80;;
14554;SDS011;7364;50.870;4.722;2023-11-21T07:17:02;22.80;;;16.10;;
14554;SDS011;7364;50.870;4.722;2023-11-21T07:19:29;18.27;;;15.33;;
14554;SDS011;7364;50.870;4.722;2023-11-21T07:21:56;27.67;;;16.93;;
14554;SDS011;7364;50.870;4.722;2023-11-21T07:24:23;24.60;;;15.30;;
14554;SDS011;7364;50.870;4.722;2023-11-21T07:26:51;21.10;;;15.60;;
14554;SDS011;7364;50.870;4.722;2023-11-21T07:29:23;30.23;;;17.47;;
14554;SDS011;7364;50.870;4.722;2023-11-21T07:31:51;24.00;;;17.70;;
14554;SDS011;7364;50.870;4.722;2023-11-21T07:34:20;28.77;;;18.40;;
14554;SDS011;7364;50.870;4.722;2023-11-21T07:36:47;25.73;;;17.07;;
14554;SDS011;7364;50.870;4.722;2023-11-21T07:39:15;28.57;;;18.43;;
14554;SDS011;7364;50.870;4.722;2023-11-21T07:41:42;26.30;;;17.17;;
14554;SDS011;7364;50.870;4.722;2023-11-21T07:44:14;21.30;;;17.67;;
14554;SDS011;7364;50.870;4.722;2023-11-21T07:46:42;23.20;;;17.97;;
14554;SDS011;7364;50.870;4.722;2023-11-21T07:49:09;24.77;;;16.90;;
14554;SDS011;7364;50.870;4.722;2023-11-21T07:51:38;22.33;;;17.20;;
14554;SDS011;7364;50.870;4.722;2023-11-21T07:54:05;24.77;;;16.13;;
14554;SDS011;7364;50.870;4.722;2023-11-21T07:56:33;25.57;;;16.87;;
14554;SDS011;7364;50.870;4.722;2023-11-21T07:59:00;25.93;;;16.67;;
14554;SDS011;7364;50.870;4.722;2023-11-21T08:01:27;25.53;;;16.83;;
14554;SDS011;7364;50.870;4.722;2023-11-21T08:03:54;24.73;;;18.47;;
14554;SDS011;7364;50.870;4.722;2023-11-21T08:06:24;27.60;;;17.03;;
14554;SDS011;7364;50.870;4.722;2023-11-21T08:08:53;25.83;;;18.87;;
14554;SDS011;7364;50.870;4.722;2023-11-21T08:11:20;26.03;;;17.93;;
14554;SDS011;7364;50.870;4.722;2023-11-21T08:13:47;26.27;;;17.63;;
14554;SDS011;7364;50.870;4.722;2023-11-21T08:16:15;24.80;;;17.90;;
14554;SDS011;7364;50.870;4.722;2023-11-21T08:18:42;23.07;;;16.83;;
14554;SDS011;7364;50.870;4.722;2023-11-21T08:21:09;34.33;;;19.23;;
14554;SDS011;7364;50.870;4.722;2023-11-21T08:23:39;28.97;;;17.87;;
14554;SDS011;7364;50.870;4.722;2023-11-21T08:26:08;24.87;;;17.10;;
14554;SDS011;7364;50.870;4.722;2023-11-21T08:28:35;23.73;;;16.37;;
14554;SDS011;7364;50.870;4.722;2023-11-21T08:31:03;31.10;;;19.00;;
14554;SDS011;7364;50.870;4.722;2023-11-21T08:33:30;25.20;;;18.20;;
14554;SDS011;7364;50.870;4.722;2023-11-21T08:35:58;26.00;;;18.43;;
14554;SDS011;7364;50.870;4.722;2023-11-21T08:38:26;22.93;;;17.60;;
14554;SDS011;7364;50.870;4.722;2023-11-21T08:40:54;28.53;;;17.63;;
14554;SDS011;7364;50.870;4.722;2023-11-21T08:43:22;26.07;;;18.57;;
14554;SDS011;7364;50.870;4.722;2023-11-21T08:45:53;27.13;;;18.33;;
14554;SDS011;7364;50.870;4.722;2023-11-21T08:48:20;35.27;;;19.03;;
14554;SDS011;7364;50.870;4.722;2023-11-21T08:50:47;24.40;;;18.17;;
14554;SDS011;7364;50.870;4.722;2023-11-21T08:53:16;21.63;;;16.53;;
14554;SDS011;7364;50.870;4.722;2023-11-21T08:55:43;23.03;;;17.43;;
14554;SDS011;7364;50.870;4.722;2023-11-21T08:58:10;24.20;;;17.97;;
14554;SDS011;7364;50.870;4.722;2023-11-21T09:00:39;28.77;;;18.17;;
14554;SDS011;7364;50.870;4.722;2023-11-21T09:03:06;26.83;;;18.43;;
14554;SDS011;7364;50.870;4.722;2023-11-21T09:05:34;26.80;;;20.03;;
14554;SDS011;7364;50.870;4.722;2023-11-21T09:08:05;29.60;;;17.13;;
14554;SDS011;7364;50.870;4.722;2023-11-21T09:10:33;23.13;;;17.30;;
14554;SDS011;7364;50.870;4.722;2023-11-21T09:13:02;24.37;;;18.40;;
14554;SDS011;7364;50.870;4.722;2023-11-21T09:15:29;28.07;;;19.13;;
14554;SDS011;7364;50.870;4.722;2023-11-21T09:17:57;25.03;;;18.70;;
14554;SDS011;7364;50.870;4.722;2023-11-21T09:20:25;22.00;;;18.13;;
14554;SDS011;7364;50.870;4.722;2023-11-21T09:22:53;27.97;;;20.67;;
14554;SDS011;7364;50.870;4.722;2023-11-21T09:25:21;27.10;;;19.03;;
14554;SDS011;7364;50.870;4.722;2023-11-21T09:27:49;32.30;;;19.50;;
14554;SDS011;7364;50.870;4.722;2023-11-21T09:30:16;24.70;;;18.67;;
14554;SDS011;7364;50.870;4.722;2023-11-21T09:32:43;25.13;;;18.43;;
14554;SDS011;7364;50.870;4.722;2023-11-21T09:35:12;24.53;;;19.33;;
14554;SDS011;7364;50.870;4.722;2023-11-21T09:37:40;29.00;;;18.60;;
14554;SDS011;7364;50.870;4.722;2023-11-21T09:40:08;30.53;;;19.00;;
14554;SDS011;7364;50.870;4.722;2023-11-21T09:42:39;30.37;;;19.63;;
14554;SDS011;7364;50.870;4.722;2023-11-21T09:45:12;26.50;;;19.27;;
14554;SDS011;7364;50.870;4.722;2023-11-21T09:47:48;33.67;;;20.67;;
14554;SDS011;7364;50.870;4.722;2023-11-21T09:50:19;30.47;;;19.23;;
14554;SDS011;7364;50.870;4.722;2023-11-21T09:52:52;33.63;;;20.43;;
14554;SDS011;7364;50.870;4.722;2023-11-21T09:55:26;26.10;;;19.27;;
14554;SDS011;7364;50.870;4.722;2023-11-21T09:57:55;27.10;;;18.90;;
14554;SDS011;7364;50.870;4.722;2023-11-21T10:00:23;26.80;;;19.20;;
14554;SDS011;7364;50.870;4.722;2023-11-21T10:02:50;29.67;;;18.70;;
14554;SDS011;7364;50.870;4.722;2023-11-21T10:05:20;24.07;;;17.00;;
14554;SDS011;7364;50.870;4.722;2023-11-21T10:07:48;24.27;;;18.07;;
14554;SDS011;7364;50.870;4.722;2023-11-21T10:10:18;23.13;;;18.03;;
14554;SDS011;7364;50.870;4.722;2023-11-21T10:12:50;24.73;;;16.73;;
14554;SDS011;7364;50.870;4.722;2023-11-21T10:15:22;22.67;;;15.63;;
14554;SDS011;7364;50.870;4.722;2023-11-21T10:17:50;21.77;;;14.83;;
14554;SDS011;7364;50.870;4.722;2023-11-21T10:20:20;17.60;;;13.13;;
14554;SDS011;7364;50.870;4.722;2023-11-21T10:22:49;15.40;;;12.43;;
14554;SDS011;7364;50.870;4.722;2023-11-21T10:25:16;15.90;;;13.57;;
14554;SDS011;7364;50.870;4.722;2023-11-21T10:27:47;19.07;;;14.60;;
14554;SDS011;7364;50.870;4.722;2023-11-21T10:30:16;26.50;;;17.10;;
14554;SDS011;7364;50.870;4.722;2023-11-21T10:32:43;21.67;;;16.33;;
14554;SDS011;7364;50.870;4.722;2023-11-21T10:35:11;26.00;;;16.90;;
14554;SDS011;7364;50.870;4.722;2023-11-21T10:37:40;36.77;;;21.33;;
14554;SDS011;7364;50.870;4.722;2023-11-21T10:40:08;30.93;;;21.37;;
14554;SDS011;7364;50.870;4.722;2023-11-21T10:42:37;32.93;;;21.97;;
14554;SDS011;7364;50.870;4.722;2023-11-21T10:45:07;30.03;;;21.03;;
14554;SDS011;7364;50.870;4.722;2023-11-21T10:47:38;28.53;;;19.60;;
14554;SDS011;7364;50.870;4.722;2023-11-21T10:50:06;28.77;;;21.77;;
14554;SDS011;7364;50.870;4.722;2023-11-21T10:52:36;28.17;;;19.63;;
14554;SDS011;7364;50.870;4.722;2023-11-21T10:55:17;27.43;;;18.90;;
14554;SDS011;7364;50.870;4.722;2023-11-21T10:57:46;31.87;;;20.60;;
14554;SDS011;7364;50.870;4.722;2023-11-21T11:00:16;38.87;;;20.40;;
14554;SDS011;7364;50.870;4.722;2023-11-21T11:02:46;29.63;;;19.07;;
14554;SDS011;7364;50.870;4.722;2023-11-21T11:05:16;31.13;;;20.73;;
14554;SDS011;7364;50.870;4.722;2023-11-21T11:07:47;32.60;;;18.37;;
14554;SDS011;7364;50.870;4.722;2023-11-21T11:10:21;33.03;;;19.60;;
14554;SDS011;7364;50.870;4.722;2023-11-21T11:12:51;31.37;;;19.77;;
14554;SDS011;7364;50.870;4.722;2023-11-21T11:15:20;27.83;;;19.90;;
14554;SDS011;7364;50.870;4.722;2023-11-21T11:17:48;32.40;;;19.90;;
14554;SDS011;7364;50.870;4.722;2023-11-21T11:20:16;27.30;;;18.27;;
14554;SDS011;7364;50.870;4.722;2023-11-21T11:22:48;27.47;;;19.33;;
14554;SDS011;7364;50.870;4.722;2023-11-21T11:25:30;28.37;;;18.40;;
14554;SDS011;7364;50.870;4.722;2023-11-21T11:28:14;25.30;;;19.47;;
14554;SDS011;7364;50.870;4.722;2023-11-21T11:30:47;25.73;;;18.47;;
14554;SDS011;7364;50.870;4.722;2023-11-21T11:33:30;28.13;;;19.53;;
14554;SDS011;7364;50.870;4.722;2023-11-21T11:36:03;25.47;;;18.00;;
14554;SDS011;7364;50.870;4.722;2023-11-21T11:38:34;31.60;;;20.50;;
14554;SDS011;7364;50.870;4.722;2023-11-21T11:41:03;28.90;;;19.27;;
14554;SDS011;7364;50.870;4.722;2023-11-21T11:43:32;31.00;;;20.13;;
14554;SDS011;7364;50.870;4.722;2023-11-21T11:46:09;31.40;;;18.73;;
14554;SDS011;7364;50.870;4.722;2023-11-21T11:48:38;35.33;;;18.80;;
14554;SDS011;7364;50.870;4.722;2023-11-21T11:51:06;23.37;;;17.67;;
14554;SDS011;7364;50.870;4.722;2023-11-21T11:53:37;27.43;;;17.73;;
14554;SDS011;7364;50.870;4.722;2023-11-21T11:56:24;22.63;;;16.30;;
14554;SDS011;7364;50.870;4.722;2023-11-21T11:58:52;23.43;;;16.70;;
14554;SDS011;7364;50.870;4.722;2023-11-21T12:01:20;25.53;;;16.77;;
14554;SDS011;7364;50.870;4.722;2023-11-21T12:07:01;21.17;;;15.00;;
14554;SDS011;7364;50.870;4.722;2023-11-21T12:09:30;17.80;;;12.00;;
14554;SDS011;7364;50.870;4.722;2023-11-21T12:11:59;17.07;;;12.20;;
14554;SDS011;7364;50.870;4.722;2023-11-21T12:14:27;12.43;;;10.43;;
14554;SDS011;7364;50.870;4.722;2023-11-21T12:16:54;13.93;;;10.03;;
14554;SDS011;7364;50.870;4.722;2023-11-21T12:19:22;15.83;;;10.90;;
14554;SDS011;7364;50.870;4.722;2023-11-21T12:21:49;19.17;;;10.43;;
14554;SDS011;7364;50.870;4.722;2023-11-21T12:24:17;20.67;;;11.23;;
14554;SDS011;7364;50.870;4.722;2023-11-21T12:26:44;15.23;;;11.33;;
14554;SDS011;7364;50.870;4.722;2023-11-21T12:29:13;15.37;;;11.83;;
14554;SDS011;7364;50.870;4.722;2023-11-21T12:31:41;14.73;;;10.80;;
14554;SDS011;7364;50.870;4.722;2023-11-21T12:34:09;13.33;;;10.43;;
14554;SDS011;7364;50.870;4.722;2023-11-21T12:36:37;12.13;;;9.37;;
14554;SDS011;7364;50.870;4.722;2023-11-21T12:39:05;12.27;;;8.80;;
14554;SDS011;7364;50.870;4.722;2023-11-21T12:41:34;9.97;;;7.37;;
14554;SDS011;7364;50.870;4.722;2023-11-21T12:44:01;12.13;;;8.37;;
14554;SDS011;7364;50.870;4.722;2023-11-21T12:46:30;11.93;;;8.07;;
14554;SDS011;7364;50.870;4.722;2023-11-21T12:48:59;12.00;;;7.70;;
14554;SDS011;7364;50.870;4.722;2023-11-21T12:51:26;8.07;;;7.17;;
14554;SDS011;7364;50.870;4.722;2023-11-21T12:53:54;9.10;;;6.90;;
14554;SDS011;7364;50.870;4.722;2023-11-21T12:56:23;9.80;;;7.57;;
14554;SDS011;7364;50.870;4.722;2023-11-21T12:58:53;9.03;;;6.70;;
14554;SDS011;7364;50.870;4.722;2023-11-21T13:01:25;8.53;;;6.23;;
14554;SDS011;7364;50.870;4.722;2023-11-21T13:03:56;8.40;;;6.50;;
14554;SDS011;7364;50.870;4.722;2023-11-21T13:06:25;9.80;;;5.80;;
14554;SDS011;7364;50.870;4.722;2023-11-21T13:08:52;7.17;;;6.07;;
14554;SDS011;7364;50.870;4.722;2023-11-21T13:11:22;11.17;;;6.47;;
14554;SDS011;7364;50.870;4.722;2023-11-21T13:13:51;8.40;;;6.70;;
14554;SDS011;7364;50.870;4.722;2023-11-21T13:16:19;7.47;;;5.47;;
14554;SDS011;7364;50.870;4.722;2023-11-21T13:18:47;7.77;;;5.60;;
14554;SDS011;7364;50.870;4.722;2023-11-21T13:21:15;6.93;;;5.70;;
14554;SDS011;7364;50.870;4.722;2023-11-21T13:23:43;7.40;;;5.30;;
14554;SDS011;7364;50.870;4.722;2023-11-21T13:26:11;6.70;;;5.07;;
14554;SDS011;7364;50.870;4.722;2023-11-21T13:28:39;7.30;;;5.97;;
14554;SDS011;7364;50.870;4.722;2023-11-21T13:31:11;5.77;;;5.13;;
14554;SDS011;7364;50.870;4.722;2023-11-21T13:33:52;8.70;;;6.07;;
14554;SDS011;7364;50.870;4.722;2023-11-21T13:36:25;6.57;;;5.03;;
14554;SDS011;7364;50.870;4.722;2023-11-21T13:38:55;7.60;;;5.30;;
14554;SDS011;7364;50.870;4.722;2023-11-21T13:41:23;8.60;;;5.30;;
14554;SDS011;7364;50.870;4.722;2023-11-21T13:43:55;5.37;;;4.43;;
14554;SDS011;7364;50.870;4.722;2023-11-21T13:46:30;6.50;;;5.17;;
14554;SDS011;7364;50.870;4.722;2023-11-21T13:49:02;7.43;;;4.63;;
14554;SDS011;7364;50.870;4.722;2023-11-21T13:51:36;6.27;;;4.17;;
14554;SDS011;7364;50.870;4.722;2023-11-21T13:54:06;6.17;;;4.53;;
14554;SDS011;7364;50.870;4.722;2023-11-21T13:56:35;9.50;;;5.10;;
14554;SDS011;7364;50.870;4.722;2023-11-21T13:59:04;6.27;;;3.93;;
14554;SDS011;7364;50.870;4.722;2023-11-21T14:01:39;7.87;;;4.10;;
14554;SDS011;7364;50.870;4.722;2023-11-21T14:04:20;5.57;;;3.97;;
14554;SDS011;7364;50.870;4.722;2023-11-21T14:07:02;5.33;;;4.40;;
14554;SDS011;7364;50.870;4.722;2023-11-21T14:09:45;5.30;;;3.67;;
14554;SDS011;7364;50.870;4.722;2023-11-21T14:12:15;5.17;;;4.17;;
14554;SDS011;7364;50.870;4.722;2023-11-21T14:14:42;6.33;;;4.03;;
14554;SDS011;7364;50.870;4.722;2023-11-21T14:17:10;6.83;;;4.17;;
14554;SDS011;7364;50.870;4.722;2023-11-21T14:19:37;7.13;;;4.27;;
14554;SDS011;7364;50.870;4.722;2023-11-21T14:22:09;6.27;;;4.13;;
14554;SDS011;7364;50.870;4.722;2023-11-21T14:24:37;6.07;;;4.50;;
14554;SDS011;7364;50.870;4.722;2023-11-21T14:27:09;5.63;;;4.40;;
14554;SDS011;7364;50.870;4.722;2023-11-21T14:29:36;7.20;;;4.53;;
14554;SDS011;7364;50.870;4.722;2023-11-21T14:32:05;5.17;;;4.33;;
14554;SDS011;7364;50.870;4.722;2023-11-21T14:34:33;8.60;;;4.87;;
14554;SDS011;7364;50.870;4.722;2023-11-21T14:37:00;6.07;;;4.70;;
14554;SDS011;7364;50.870;4.722;2023-11-21T14:39:30;6.30;;;4.53;;
14554;SDS011;7364;50.870;4.722;2023-11-21T14:42:03;6.20;;;4.57;;
14554;SDS011;7364;50.870;4.722;2023-11-21T14:44:33;6.53;;;4.77;;
14554;SDS011;7364;50.870;4.722;2023-11-21T14:47:04;7.73;;;4.83;;
14554;SDS011;7364;50.870;4.722;2023-11-21T14:49:40;5.77;;;4.53;;
14554;SDS011;7364;50.870;4.722;2023-11-21T14:52:18;4.67;;;4.17;;